Time;durP1;ratioP1;P1;durP2;ratioP2;P2;SDS_P1;SDS_P2;PMS_P1;PMS_P2;Temp;Humidity;BMP_temperature;BMP_pressure;BME280_temperature;BME280_humidity;BME280_pressure;Samples;Min_cycle;Max_cycle;Signal;HPM_P1;HPM_P2
2021/10/17 00:00:26;;;;;;;;;;;;;;;21.05;64.32;101594.78;7288341;19;151724;-56
2021/10/17 00:02:54;;;;;;;;;;;;;;;21.05;64.00;101586.34;7284969;19;154242;-56
2021/10/17 00:05:24;;;;;;;;;;;;;;;21.03;64.68;101585.78;7287640;19;151952;-56
2021/10/17 00:07:51;;;;;;;;;;;;;;;21.04;64.22;101581.00;7285842;19;153480;-56
2021/10/17 00:10:19;;;;;;;;;;;;;;;21.04;64.49;101583.81;7286100;19;153648;-55
2021/10/17 00:12:46;;;;;;;;;;;;;;;21.00;64.57;101586.41;7284464;19;152217;-56
2021/10/17 00:15:15;;;;;;;;;;;;;;;21.01;64.78;101585.25;7287275;19;153265;-56
2021/10/17 00:17:45;;;;;;;;;;;;;;;20.99;64.52;101579.09;7292992;19;153374;-56
2021/10/17 00:20:13;;;;;;;;;;;;;;;20.99;64.91;101579.09;7286131;19;152707;-55
2021/10/17 00:22:40;;;;;;;;;;;;;;;20.99;65.31;101579.09;7286981;19;153917;-56
2021/10/17 00:25:08;;;;;;;;;;;;;;;20.99;65.68;101575.44;7286681;19;152053;-56
2021/10/17 00:27:36;;;;;;;;;;;;;;;20.97;65.48;101569.31;7285365;19;153372;-56
2021/10/17 00:30:04;;;;;;;;;;;;;;;20.95;65.74;101575.19;7284261;19;153121;-57
2021/10/17 00:32:31;;;;;;;;;;;;;;;20.94;65.27;101570.72;7285277;19;151850;-56
2021/10/17 00:34:59;;;;;;;;;;;;;;;20.95;65.58;101568.75;7287899;19;152403;-56
2021/10/17 00:37:26;;;;;;;;;;;;;;;20.94;65.97;101573.53;7286625;19;153905;-55
2021/10/17 00:39:54;;;;;;;;;;;;;;;20.94;65.75;101567.09;7293149;19;151811;-56
2021/10/17 00:42:21;;;;;;;;;;;;;;;20.94;66.11;101564.28;7287162;19;154053;-56
2021/10/17 00:44:51;;;;;;;;;;;;;;;20.92;65.85;101563.72;7285608;19;151733;-55
2021/10/17 00:47:18;;;;;;;;;;;;;;;20.91;66.25;101562.88;7288284;19;153274;-55
2021/10/17 00:49:45;;;;;;;;;;;;;;;20.91;65.80;101556.44;7285948;19;153878;-55
2021/10/17 00:52:12;;;;;;;;;;;;;;;20.91;66.29;101559.25;7285428;19;152148;-55
2021/10/17 00:54:41;;;;;;;;;;;;;;;20.89;66.31;101567.97;7287129;19;152628;-55
2021/10/17 00:57:10;;;;;;;;;;;;;;;20.88;65.82;101568.25;7284237;19;153703;-55
2021/10/17 00:59:37;;;;;;;;;;;;;;;20.88;66.32;101569.09;7295092;19;152147;-56
2021/10/17 01:02:04;;;;;;;;;;;;;;;20.88;66.00;101563.50;7285362;19;153792;-55
2021/10/17 01:04:32;;;;;;;;;;;;;;;20.86;66.24;101560.97;7285369;19;151969;-55
2021/10/17 01:06:59;;;;;;;;;;;;;;;20.85;66.29;101561.25;7284042;19;152276;-55
2021/10/17 01:09:26;;;;;;;;;;;;;;;20.85;66.13;101552.81;7285551;19;154210;-55
2021/10/17 01:11:53;;;;;;;;;;;;;;;20.86;66.47;101554.50;7286889;19;151450;-55
2021/10/17 01:14:21;;;;;;;;;;;;;;;20.84;66.57;101549.22;7287419;19;153297;-56
2021/10/17 01:16:49;;;;;;;;;;;;;;;20.85;66.73;101552.81;7284522;19;153907;-55
2021/10/17 01:19:16;;;;;;;;;;;;;;;20.84;66.54;101557.63;7285071;19;152055;-55
2021/10/17 01:21:44;;;;;;;;;;;;;;;20.82;66.35;101545.84;7290395;19;153122;-56
2021/10/17 01:24:11;;;;;;;;;;;;;;;20.83;66.58;101552.31;7284585;19;151689;-56
2021/10/17 01:26:39;;;;;;;;;;;;;;;20.81;66.31;101548.94;7284597;19;153435;-57
2021/10/17 01:29:06;;;;;;;;;;;;;;;20.80;66.48;101550.09;7281374;19;152563;-55
2021/10/17 01:31:34;;;;;;;;;;;;;;;20.80;66.53;101542.47;7286552;19;152290;-56
2021/10/17 01:34:01;;;;;;;;;;;;;;;20.80;66.61;101547.28;7283977;19;153938;-56
2021/10/17 01:36:28;;;;;;;;;;;;;;;20.80;66.38;101548.09;7285446;19;153647;-56
2021/10/17 01:38:56;;;;;;;;;;;;;;;20.80;66.28;101536.84;7284639;19;151713;-56
2021/10/17 01:41:23;;;;;;;;;;;;;;;20.79;66.51;101540.81;7281939;19;153005;-55
2021/10/17 01:43:51;;;;;;;;;;;;;;;20.78;66.42;101535.50;7289972;19;153578;-56
2021/10/17 01:46:18;;;;;;;;;;;;;;;20.78;66.77;101530.72;7284555;19;153226;-55
2021/10/17 01:48:45;;;;;;;;;;;;;;;20.84;66.60;101528.69;7281468;19;153605;-56
2021/10/17 01:51:12;;;;;;;;;;;;;;;20.84;66.31;101526.72;7284809;19;151652;-55
2021/10/17 01:53:39;;;;;;;;;;;;;;;20.82;66.40;101523.38;7283462;19;152779;-55
2021/10/17 01:56:06;;;;;;;;;;;;;;;20.79;66.72;101521.16;7285335;19;153741;-56
2021/10/17 01:58:32;;;;;;;;;;;;;;;20.78;67.01;101521.44;7285103;19;151869;-55
2021/10/17 02:00:59;;;;;;;;;;;;;;;20.77;66.92;101525.38;7285688;19;153373;-55
2021/10/17 02:03:27;;;;;;;;;;;;;;;20.76;66.74;101518.09;7281837;19;153589;-55
2021/10/17 02:05:54;;;;;;;;;;;;;;;20.75;66.69;101516.44;7290236;19;151812;-55
2021/10/17 02:08:20;;;;;;;;;;;;;;;20.74;66.96;101512.78;7284272;19;153531;-55
2021/10/17 02:10:48;;;;;;;;;;;;;;;20.73;66.87;101513.06;7284814;19;151793;-55
2021/10/17 02:13:15;;;;;;;;;;;;;;;20.72;67.09;101503.81;7281017;19;153367;-55
2021/10/17 02:15:42;;;;;;;;;;;;;;;20.72;67.35;101505.78;7284159;19;154148;-56
2021/10/17 02:18:09;;;;;;;;;;;;;;;20.70;67.06;101502.44;7284927;19;151734;-55
2021/10/17 02:20:36;;;;;;;;;;;;;;;20.71;67.15;101499.34;7284195;19;153118;-55
2021/10/17 02:23:04;;;;;;;;;;;;;;;20.70;67.27;101506.09;7283297;19;153711;-55
2021/10/17 02:25:32;;;;;;;;;;;;;;;20.69;67.42;101501.59;7284350;19;151840;-54
2021/10/17 02:27:59;;;;;;;;;;;;;;;20.70;67.24;101508.91;7288189;19;153177;-56
2021/10/17 02:30:27;;;;;;;;;;;;;;;20.69;67.44;101498.78;7280564;19;152195;-55
2021/10/17 02:32:54;;;;;;;;;;;;;;;20.69;67.17;101504.41;7282321;19;152754;-55
2021/10/17 02:35:21;;;;;;;;;;;;;;;20.68;67.44;101499.09;7282970;19;153485;-55
2021/10/17 02:37:48;;;;;;;;;;;;;;;20.68;67.50;101499.09;7284601;19;151677;-55
2021/10/17 02:40:15;;;;;;;;;;;;;;;20.68;67.46;101493.47;7281246;19;152722;-55
2021/10/17 02:42:42;;;;;;;;;;;;;;;20.67;67.62;101498.25;7284235;19;153362;-55
2021/10/17 02:45:09;;;;;;;;;;;;;;;20.66;67.31;101490.97;7283537;19;151944;-56
2021/10/17 02:47:36;;;;;;;;;;;;;;;20.66;67.68;101490.97;7284006;19;153487;-56
2021/10/17 02:50:04;;;;;;;;;;;;;;;20.65;67.66;101483.69;7290092;19;151771;-56
2021/10/17 02:52:31;;;;;;;;;;;;;;;20.65;67.51;101483.69;7287220;19;153655;-55
2021/10/17 02:54:58;;;;;;;;;;;;;;;20.65;67.54;101486.47;7287870;19;153525;-56
2021/10/17 02:57:25;;;;;;;;;;;;;;;20.64;67.64;101492.38;7290575;19;151825;-55
2021/10/17 02:59:52;;;;;;;;;;;;;;;20.63;67.94;101488.75;7289085;19;153126;-56
2021/10/17 03:02:19;;;;;;;;;;;;;;;20.63;67.57;101488.75;7287641;19;153669;-55
2021/10/17 03:04:46;;;;;;;;;;;;;;;20.62;68.03;101478.66;7289285;19;151699;-55
2021/10/17 03:07:13;;;;;;;;;;;;;;;20.60;67.97;101486.53;7290839;19;153895;-55
2021/10/17 03:09:40;;;;;;;;;;;;;;;20.59;67.55;101476.44;7296633;19;153796;-55
2021/10/17 03:12:07;;;;;;;;;;;;;;;20.60;67.77;101469.69;7290048;19;152220;-56
2021/10/17 03:14:34;;;;;;;;;;;;;;;20.59;67.69;101468.00;7286576;19;153365;-55
2021/10/17 03:17:01;;;;;;;;;;;;;;;20.59;67.63;101467.16;7290185;19;151877;-55
2021/10/17 03:19:28;;;;;;;;;;;;;;;20.57;67.86;101459.06;7287965;19;153642;-55
2021/10/17 03:21:55;;;;;;;;;;;;;;;20.57;68.01;101456.25;7288893;19;151998;-55
2021/10/17 03:24:21;;;;;;;;;;;;;;;20.56;68.02;101453.72;7289682;19;151859;-55
2021/10/17 03:26:49;;;;;;;;;;;;;;;20.56;67.94;101457.38;7287803;19;153019;-55
2021/10/17 03:29:16;;;;;;;;;;;;;;;20.55;67.57;101452.88;7288449;19;153217;-54
2021/10/17 03:31:43;;;;;;;;;;;;;;;20.54;67.93;101455.97;7296041;19;152119;-55
2021/10/17 03:34:10;;;;;;;;;;;;;;;20.53;67.77;101452.38;7286146;19;153960;-55
2021/10/17 03:36:37;;;;;;;;;;;;;;;20.52;67.98;101447.03;7289093;19;151598;-54
2021/10/17 03:39:04;;;;;;;;;;;;;;;20.52;67.56;101449.84;7290069;19;153346;-55
2021/10/17 03:41:31;;;;;;;;;;;;;;;20.51;67.77;101449.00;7288110;19;153954;-55
2021/10/17 03:43:58;;;;;;;;;;;;;;;20.51;67.55;101451.81;7289062;19;151740;-55
2021/10/17 03:46:25;;;;;;;;;;;;;;;20.51;67.70;101457.44;7287965;19;152390;-56
2021/10/17 03:48:52;;;;;;;;;;;;;;;20.49;67.82;101453.25;7288716;19;153348;-54
2021/10/17 03:51:19;;;;;;;;;;;;;;;20.48;67.75;101449.59;7288373;19;151589;-55
2021/10/17 03:53:46;;;;;;;;;;;;;;;20.49;67.89;101454.06;7294746;19;152675;-55
2021/10/17 03:56:13;;;;;;;;;;;;;;;20.48;68.21;101454.38;7289169;19;151653;-56
2021/10/17 03:58:40;;;;;;;;;;;;;;;20.48;68.10;101454.38;7288704;19;153996;-55
2021/10/17 04:01:09;;;;;;;;;;;;;;;20.48;68.04;101463.63;7287672;19;154184;-56
2021/10/17 04:03:36;;;;;;;;;;;;;;;20.49;68.30;101456.88;7283985;19;151849;-55
2021/10/17 04:06:06;;;;;;;;;;;;;;;20.48;68.61;101460.84;7288274;19;153486;-54
2021/10/17 04:08:33;;;;;;;;;;;;;;;20.48;68.58;101460.84;7287917;19;153665;-55
2021/10/17 04:11:03;;;;;;;;;;;;;;;20.49;68.60;101468.09;7284303;19;151925;-56
2021/10/17 04:13:30;;;;;;;;;;;;;;;20.48;68.58;101460.84;7287557;19;153572;-55
2021/10/17 04:15:58;;;;;;;;;;;;;;;20.48;68.81;101462.81;7295494;19;152219;-56
2021/10/17 04:18:25;;;;;;;;;;;;;;;20.47;69.01;101459.16;7287557;19;153275;-55
2021/10/17 04:20:52;;;;;;;;;;;;;;;20.48;68.67;101466.44;7284632;19;154364;-55
2021/10/17 04:23:19;;;;;;;;;;;;;;;20.48;68.85;101463.63;7286235;19;151773;-56
2021/10/17 04:25:46;;;;;;;;;;;;;;;20.47;68.94;101470.38;7285397;19;153043;-55
2021/10/17 04:28:13;;;;;;;;;;;;;;;20.46;69.54;101474.31;7284374;19;153239;-55
2021/10/17 04:30:40;;;;;;;;;;;;;;;20.47;69.78;101470.38;7286451;19;151791;-56
2021/10/17 04:33:07;;;;;;;;;;;;;;;20.46;69.46;101457.47;7284481;19;152876;-54
2021/10/17 04:35:37;;;;;;;;;;;;;;;20.48;69.72;101466.44;7285787;19;154049;-55
2021/10/17 04:38:05;;;;;;;;;;;;;;;20.48;69.78;101460.84;7293204;19;151686;-55
2021/10/17 04:40:32;;;;;;;;;;;;;;;20.48;69.93;101465.59;7285529;19;154216;-55
2021/10/17 04:43:00;;;;;;;;;;;;;;;20.47;70.06;101466.72;7285898;19;151512;-55
2021/10/17 04:45:27;;;;;;;;;;;;;;;20.47;70.12;101461.97;7283358;19;152635;-56
2021/10/17 04:47:54;;;;;;;;;;;;;;;20.47;69.81;101461.13;7285268;19;153330;-55
2021/10/17 04:50:21;;;;;;;;;;;;;;;20.45;69.84;101461.41;7286055;19;151798;-55
2021/10/17 04:52:48;;;;;;;;;;;;;;;20.44;70.18;101465.38;7284913;19;152637;-56
2021/10/17 04:55:15;;;;;;;;;;;;;;;20.44;70.08;101453.31;7282567;19;153672;-55
2021/10/17 04:57:42;;;;;;;;;;;;;;;20.42;70.15;101460.03;7291365;19;152096;-55
2021/10/17 05:00:09;;;;;;;;;;;;;;;20.42;69.83;101459.19;7285242;19;152576;-55
2021/10/17 05:02:36;;;;;;;;;;;;;;;20.43;70.01;101458.06;7284745;19;151796;-55
2021/10/17 05:05:05;;;;;;;;;;;;;;;20.42;70.24;101462.00;7285515;19;152868;-55
2021/10/17 05:07:32;;;;;;;;;;;;;;;20.41;70.17;101458.34;7282806;19;154040;-54
2021/10/17 05:09:59;;;;;;;;;;;;;;;20.41;69.93;101461.16;7285015;19;151808;-55
2021/10/17 05:12:26;;;;;;;;;;;;;;;20.41;70.04;101457.53;7285863;19;153321;-55
2021/10/17 05:14:53;;;;;;;;;;;;;;;20.41;69.99;101446.28;7281447;19;153777;-55
2021/10/17 05:17:20;;;;;;;;;;;;;;;20.40;69.75;101455.84;7284624;19;151785;-56
2021/10/17 05:19:47;;;;;;;;;;;;;;;20.38;69.63;101447.72;7291258;19;153349;-56
2021/10/17 05:22:14;;;;;;;;;;;;;;;20.39;69.73;101455.03;7284675;19;151661;-55
2021/10/17 05:24:41;;;;;;;;;;;;;;;20.36;70.04;101458.41;7285140;19;153477;-56
2021/10/17 05:27:08;;;;;;;;;;;;;;;20.38;69.56;101453.34;7283775;19;153242;-55
2021/10/17 05:29:35;;;;;;;;;;;;;;;20.38;69.99;101455.31;7284888;19;151891;-55
2021/10/17 05:32:02;;;;;;;;;;;;;;;20.38;69.87;101456.16;7284949;19;153222;-55
2021/10/17 05:34:29;;;;;;;;;;;;;;;20.38;69.73;101455.31;7281974;19;153928;-56
2021/10/17 05:36:56;;;;;;;;;;;;;;;20.38;69.90;101458.13;7285260;19;151826;-55
2021/10/17 05:39:23;;;;;;;;;;;;;;;20.37;69.91;101456.44;7284971;19;153113;-55
2021/10/17 05:41:50;;;;;;;;;;;;;;;20.39;69.34;101460.66;7290443;19;153319;-55
2021/10/17 05:44:17;;;;;;;;;;;;;;;20.38;69.59;101455.31;7284221;19;151614;-55
2021/10/17 05:46:43;;;;;;;;;;;;;;;20.37;69.62;101459.25;7284789;19;153766;-55
2021/10/17 05:49:11;;;;;;;;;;;;;;;20.37;69.29;101467.66;7284663;19;152268;-55
2021/10/17 05:51:38;;;;;;;;;;;;;;;20.36;69.37;101464.00;7286061;19;153008;-55
2021/10/17 05:54:05;;;;;;;;;;;;;;;20.37;69.62;101470.47;7283051;19;152571;-55
2021/10/17 05:56:31;;;;;;;;;;;;;;;20.36;69.34;101478.06;7286065;19;151433;-56
2021/10/17 05:58:58;;;;;;;;;;;;;;;20.35;69.36;101469.94;7285129;19;153269;-55
2021/10/17 06:01:25;;;;;;;;;;;;;;;20.35;69.65;101473.56;7284385;19;151907;-55
2021/10/17 06:03:52;;;;;;;;;;;;;;;20.36;69.13;101468.78;7289542;19;151872;-55
2021/10/17 06:06:19;;;;;;;;;;;;;;;20.38;69.49;101472.16;7282933;19;153202;-55
2021/10/17 06:08:47;;;;;;;;;;;;;;;20.41;69.12;101477.16;7284906;19;151769;-54
2021/10/17 06:11:13;;;;;;;;;;;;;;;20.46;70.05;101479.09;7285935;19;153058;-56
2021/10/17 06:13:40;;;;;;;;;;;;;;;20.52;69.97;101486.34;7283638;19;153293;-56
2021/10/17 06:16:07;;;;;;;;;;;;;;;20.55;70.71;101478.16;7285229;19;151479;-55
2021/10/17 06:18:34;;;;;;;;;;;;;;;20.59;70.58;101482.03;7284667;19;152627;-56
2021/10/17 06:21:02;;;;;;;;;;;;;;;20.64;70.88;101487.63;7284612;19;153450;-55
2021/10/17 06:23:29;;;;;;;;;;;;;;;20.68;71.24;101480.28;7284229;19;152162;-55
2021/10/17 06:25:56;;;;;;;;;;;;;;;20.73;71.42;101485.00;7292073;19;152601;-55
2021/10/17 06:28:23;;;;;;;;;;;;;;;20.78;71.37;101490.56;7290706;19;151650;-56
2021/10/17 06:30:50;;;;;;;;;;;;;;;20.82;71.73;101484.06;7290018;19;151992;-56
2021/10/17 06:33:17;;;;;;;;;;;;;;;20.90;71.88;101490.13;7290282;19;153561;-55
2021/10/17 06:35:44;;;;;;;;;;;;;;;20.95;71.82;101487.28;7287971;19;151582;-55
2021/10/17 06:38:11;;;;;;;;;;;;;;;21.01;71.90;101494.53;7290318;19;153524;-56
2021/10/17 06:40:38;;;;;;;;;;;;;;;21.07;71.26;101488.56;7288356;19;152670;-56
2021/10/17 06:43:05;;;;;;;;;;;;;;;21.13;71.32;101489.34;7288829;19;152075;-55
2021/10/17 06:45:32;;;;;;;;;;;;;;;21.19;71.01;101499.41;7291559;19;152674;-55
2021/10/17 06:47:59;;;;;;;;;;;;;;;21.24;70.71;101491.75;7296613;19;153415;-55
2021/10/17 06:50:26;;;;;;;;;;;;;;;21.32;70.28;101489.41;7291129;19;152749;-55
2021/10/17 06:52:53;;;;;;;;;;;;;;;21.38;69.74;101494.66;7289490;19;154088;-56
2021/10/17 06:55:20;;;;;;;;;;;;;;;21.45;69.70;101497.09;7289719;19;151558;-57
2021/10/17 06:57:47;;;;;;;;;;;;;;;21.50;69.84;101492.25;7289731;19;152891;-55
2021/10/17 07:00:15;;;;;;;;;;;;;;;21.56;69.57;101493.84;7287818;19;154050;-55
2021/10/17 07:02:42;;;;;;;;;;;;;;;21.62;69.41;101492.63;7288959;19;152571;-55
2021/10/17 07:05:09;;;;;;;;;;;;;;;21.68;69.12;101485.81;7288895;19;153812;-55
2021/10/17 07:07:36;;;;;;;;;;;;;;;21.74;68.67;101495.84;7293530;19;153463;-55
2021/10/17 07:10:04;;;;;;;;;;;;;;;21.79;68.71;101492.13;7288726;19;152648;-55
2021/10/17 07:12:31;;;;;;;;;;;;;;;21.84;68.20;101489.25;7286014;19;154431;-55
2021/10/17 07:14:58;;;;;;;;;;;;;;;21.88;67.99;101486.66;7286792;19;151797;-55
2021/10/17 07:17:25;;;;;;;;;;;;;;;21.93;67.54;101493.06;7288552;19;153408;-55
2021/10/17 07:19:52;;;;;;;;;;;;;;;21.98;67.92;101486.53;7286439;19;152832;-55
2021/10/17 07:22:19;;;;;;;;;;;;;;;22.00;67.57;101493.50;7287458;19;151557;-55
2021/10/17 07:24:46;;;;;;;;;;;;;;;22.03;66.95;101487.25;7287695;19;153572;-55
2021/10/17 07:27:13;;;;;;;;;;;;;;;22.06;66.95;101488.66;7287345;19;153936;-55
2021/10/17 07:29:40;;;;;;;;;;;;;;;22.08;66.42;101480.72;7294531;19;151990;-55
2021/10/17 07:32:07;;;;;;;;;;;;;;;22.11;66.69;101480.13;7286789;19;152600;-55
2021/10/17 07:34:35;;;;;;;;;;;;;;;22.14;66.61;101476.69;7286124;19;151976;-55
2021/10/17 07:37:02;;;;;;;;;;;;;;;22.13;66.77;101470.22;7288463;19;152742;-55
2021/10/17 07:39:29;;;;;;;;;;;;;;;22.16;66.25;101472.44;7282761;19;153460;-55
2021/10/17 07:41:56;;;;;;;;;;;;;;;22.18;66.13;101472.94;7287042;19;152060;-55
2021/10/17 07:44:23;;;;;;;;;;;;;;;22.18;66.14;101472.13;7285942;19;152561;-55
2021/10/17 07:46:50;;;;;;;;;;;;;;;22.20;65.92;101471.81;7286648;19;154241;-55
2021/10/17 07:49:17;;;;;;;;;;;;;;;22.21;66.37;101471.53;7288498;19;152086;-55
2021/10/17 07:51:44;;;;;;;;;;;;;;;22.22;66.19;101480.78;7294484;19;153097;-55
2021/10/17 07:54:11;;;;;;;;;;;;;;;22.24;65.38;101476.53;7287129;19;151993;-55
2021/10/17 07:56:38;;;;;;;;;;;;;;;22.24;65.58;101473.72;7286614;19;152181;-56
2021/10/17 07:59:05;;;;;;;;;;;;;;;22.27;64.98;101478.72;7286688;19;153339;-55
2021/10/17 08:01:32;;;;;;;;;;;;;;;22.27;64.80;101477.88;7287569;19;151737;-56
2021/10/17 08:04:04;;;;;;;;;;;;;;;22.26;64.99;101479.84;7284603;19;153204;-55
2021/10/17 08:06:32;;;;;;;;;;;;;;;22.27;64.80;101475.91;7283775;19;153672;-58
2021/10/17 08:08:59;;;;;;;;;;;;;;;22.29;65.32;101478.41;7287626;19;151779;-56
2021/10/17 08:11:26;;;;;;;;;;;;;;;22.27;64.99;101477.88;7287159;19;153813;-55
2021/10/17 08:13:53;;;;;;;;;;;;;;;22.28;64.99;101482.38;7293604;19;153461;-56
2021/10/17 08:16:21;;;;;;;;;;;;;;;22.28;64.85;101485.19;7284452;19;153395;-56
2021/10/17 08:18:48;;;;;;;;;;;;;;;22.28;64.52;101488.00;7283594;19;153627;-55
2021/10/17 08:21:15;;;;;;;;;;;;;;;22.27;64.73;101486.31;7287438;19;151751;-55
2021/10/17 08:23:42;;;;;;;;;;;;;;;22.27;64.64;101495.59;7286768;19;152820;-57
2021/10/17 08:26:09;;;;;;;;;;;;;;;22.27;64.27;101489.13;7283981;19;154137;-56
2021/10/17 08:28:36;;;;;;;;;;;;;;;22.27;64.26;101486.31;7286833;19;151513;-55
2021/10/17 08:31:03;;;;;;;;;;;;;;;22.27;64.45;101483.50;7286401;19;152625;-55
2021/10/17 08:33:31;;;;;;;;;;;;;;;22.25;64.19;101472.56;7280404;19;154192;-57
2021/10/17 08:35:58;;;;;;;;;;;;;;;22.25;64.17;101486.66;7293457;19;152018;-56
2021/10/17 08:38:25;;;;;;;;;;;;;;;22.24;64.19;101478.50;7285599;19;154197;-56
2021/10/17 08:40:53;;;;;;;;;;;;;;;22.23;64.21;101474.84;7286888;19;152277;-55
2021/10/17 08:43:20;;;;;;;;;;;;;;;22.23;64.11;101480.47;7285101;19;152761;-56
2021/10/17 08:45:47;;;;;;;;;;;;;;;22.22;63.96;101473.16;7286105;19;153441;-55
2021/10/17 08:48:14;;;;;;;;;;;;;;;22.22;64.16;101475.16;7283519;19;151685;-55
2021/10/17 08:50:42;;;;;;;;;;;;;;;22.19;63.95;101476.59;7281976;19;153511;-56
2021/10/17 08:53:09;;;;;;;;;;;;;;;22.17;64.32;101478.88;7283953;19;153457;-56
2021/10/17 08:55:37;;;;;;;;;;;;;;;22.15;63.88;101482.03;7284760;19;151809;-56
2021/10/17 08:58:04;;;;;;;;;;;;;;;22.15;64.31;101481.19;7292106;19;153386;-57
2021/10/17 09:00:32;;;;;;;;;;;;;;;22.13;64.08;101489.09;7285878;19;151819;-56
2021/10/17 09:03:00;;;;;;;;;;;;;;;22.13;64.23;101497.53;7283356;19;151822;-55
2021/10/17 09:05:31;;;;;;;;;;;;;;;22.08;64.28;101492.81;7281318;19;153718;-55
2021/10/17 09:07:58;;;;;;;;;;;;;;;22.07;63.81;101498.78;7285998;19;151778;-56
2021/10/17 09:10:26;;;;;;;;;;;;;;;22.05;64.35;101499.06;7283428;19;152255;-56
2021/10/17 09:12:53;;;;;;;;;;;;;;;22.01;64.00;101498.00;7282623;19;154120;-56
2021/10/17 09:15:25;;;;;;;;;;;;;;;22.02;63.92;101496.88;7282415;19;151784;-55
2021/10/17 09:17:56;;;;;;;;;;;;;;;21.98;64.43;101495.81;7289936;19;152783;-57
2021/10/17 09:20:23;;;;;;;;;;;;;;;21.97;64.24;101499.75;7282952;19;152403;-56
2021/10/17 09:22:50;;;;;;;;;;;;;;;21.96;64.48;101498.06;7284892;19;152644;-57
2021/10/17 09:25:28;;;;;;;;;;;;;;;21.94;64.11;101510.78;7282440;19;153989;-57
2021/10/17 09:27:55;;;;;;;;;;;;;;;21.94;64.20;101505.16;7282710;19;151778;-56
2021/10/17 09:30:23;;;;;;;;;;;;;;;21.80;60.70;101507.88;7284235;19;153527;-58
2021/10/17 09:32:50;;;;;;;;;;;;;;;21.73;60.19;101496.13;7281317;19;153848;-55
2021/10/17 09:35:17;;;;;;;;;;;;;;;21.69;61.74;101506.31;7283608;19;151570;-54
2021/10/17 09:37:45;;;;;;;;;;;;;;;21.65;62.46;101503.28;7284805;19;152573;-56
2021/10/17 09:42:51;;;;;;;;;;;;;;;21.66;62.83;101504.97;7283131;19;153886;-55
2021/10/17 09:45:20;;;;;;;;;;;;;;;21.64;62.94;101498.81;7283366;19;153777;-55
2021/10/17 09:47:47;;;;;;;;;;;;;;;21.63;63.25;101499.94;7281998;19;151950;-54
2021/10/17 09:50:15;;;;;;;;;;;;;;;21.61;63.54;101493.78;7282758;19;152696;-55
2021/10/17 09:52:58;;;;;;;;;;;;;;;21.61;63.62;101493.78;7280616;19;153016;-54
2021/10/17 09:55:25;;;;;;;;;;;;;;;21.60;63.36;101497.72;7281804;19;151746;-55
2021/10/17 09:57:52;;;;;;;;;;;;;;;21.61;63.86;101509.81;7282037;19;153664;-54
2021/10/17 10:00:19;;;;;;;;;;;;;;;21.63;63.53;101504.72;7282581;19;154300;-54
2021/10/17 10:02:47;;;;;;;;;;;;;;;21.62;63.23;101497.44;7294113;19;151886;-54
2021/10/17 10:05:16;;;;;;;;;;;;;;;21.61;63.48;101498.56;7286878;19;153359;-56
2021/10/17 10:07:45;;;;;;;;;;;;;;;21.62;63.55;101503.88;7287856;19;151852;-55
2021/10/17 10:10:13;;;;;;;;;;;;;;;21.65;63.25;101492.03;7290179;19;153634;-54
2021/10/17 10:12:42;;;;;;;;;;;;;;;21.60;63.94;101489.28;7289049;19;153832;-54
2021/10/17 10:15:10;;;;;;;;;;;;;;;21.56;63.90;101488.22;7288090;19;152129;-54
2021/10/17 10:17:38;;;;;;;;;;;;;;;21.58;63.91;101500.00;7290175;19;153425;-56
2021/10/17 10:20:05;;;;;;;;;;;;;;;21.56;63.44;101499.47;7286032;19;153621;-54
2021/10/17 10:22:32;;;;;;;;;;;;;;;21.54;63.66;101495.28;7290093;19;151775;-55
2021/10/17 10:25:00;;;;;;;;;;;;;;;21.53;63.36;101493.63;7294150;19;153308;-54
2021/10/17 10:27:28;;;;;;;;;;;;;;;21.50;63.68;101492.25;7291074;19;152214;-54
2021/10/17 10:29:58;;;;;;;;;;;;;;;21.51;63.40;101490.28;7289294;19;153702;-55
2021/10/17 10:32:26;;;;;;;;;;;;;;;21.53;63.19;101486.00;7288304;19;153721;-54
2021/10/17 10:34:55;;;;;;;;;;;;;;;21.58;63.50;101485.94;7287861;19;152347;-55
2021/10/17 10:37:23;;;;;;;;;;;;;;;21.60;63.17;101485.66;7284967;19;153516;-55
2021/10/17 10:39:53;;;;;;;;;;;;;;;21.61;63.26;101488.16;7288301;19;153645;-55
2021/10/17 10:42:20;;;;;;;;;;;;;;;21.65;62.78;101496.81;7289994;19;151761;-56
2021/10/17 10:44:49;;;;;;;;;;;;;;;21.66;63.25;101493.72;7288797;19;153337;-54
2021/10/17 10:47:19;;;;;;;;;;;;;;;21.67;63.19;101486.94;7295938;19;153827;-55
2021/10/17 10:49:48;;;;;;;;;;;;;;;21.68;63.36;101487.78;7289167;19;152639;-54
2021/10/17 10:52:18;;;;;;;;;;;;;;;21.73;63.32;101499.78;7284884;19;152201;-55
2021/10/17 10:54:45;;;;;;;;;;;;;;;21.76;63.00;101511.59;7289132;19;152225;-54
2021/10/17 10:57:18;;;;;;;;;;;;;;;21.79;63.12;101508.16;7286332;19;152752;-55
2021/10/17 10:59:48;;;;;;;;;;;;;;;21.82;62.85;101510.34;7285580;19;154053;-55
2021/10/17 11:04:50;;;;;;;;;;;;;;;21.85;62.28;101504.94;7283480;19;153264;-55
2021/10/17 11:07:18;;;;;;;;;;;;;;;21.87;62.28;101519.56;7286909;19;154903;-56
2021/10/17 11:09:45;;;;;;;;;;;;;;;21.92;62.58;101508.25;7292840;19;152168;-56
2021/10/17 11:12:15;;;;;;;;;;;;;;;21.93;62.14;101512.78;7284319;19;153864;-54
2021/10/17 11:14:42;;;;;;;;;;;;;;;21.95;62.33;101509.63;7284633;19;151861;-55
2021/10/17 11:17:09;;;;;;;;;;;;;;;21.99;62.29;101508.72;7286462;19;152657;-55
2021/10/17 11:19:37;;;;;;;;;;;;;;;21.99;62.25;101503.09;7285437;19;153429;-55
2021/10/17 11:22:04;;;;;;;;;;;;;;;22.01;62.18;101505.59;7286024;19;152064;-56
2021/10/17 11:24:31;;;;;;;;;;;;;;;22.03;61.96;101503.34;7285436;19;153316;-55
2021/10/17 11:27:01;;;;;;;;;;;;;;;22.03;61.49;101503.34;7286299;19;152771;-55
2021/10/17 11:29:31;;;;;;;;;;;;;;;22.05;61.48;101509.47;7294700;19;152068;-55
2021/10/17 11:32:05;;;;;;;;;;;;;;;22.04;61.72;101504.97;7286449;19;154101;-56
2021/10/17 11:34:32;;;;;;;;;;;;;;;22.03;61.73;101509.78;7286646;19;151727;-55
2021/10/17 11:37:02;;;;;;;;;;;;;;;22.05;61.32;101509.47;7284750;19;152860;-55
2021/10/17 11:39:49;;;;;;;;;;;;;;;22.06;61.24;101509.19;7286120;19;154473;-55
2021/10/17 11:42:16;;;;;;;;;;;;;;;22.07;61.48;101515.66;7285268;19;152169;-56
2021/10/17 11:44:43;;;;;;;;;;;;;;;22.08;61.38;101512.50;7285214;19;152651;-56
2021/10/17 11:47:10;;;;;;;;;;;;;;;22.09;60.90;101513.34;7286562;19;153281;-55
2021/10/17 11:49:37;;;;;;;;;;;;;;;22.08;60.78;101506.88;7284200;19;151789;-54
2021/10/17 11:52:04;;;;;;;;;;;;;;;22.10;61.06;101517.84;7293371;19;153463;-54
2021/10/17 11:54:34;;;;;;;;;;;;;;;22.10;60.80;101509.41;7284868;19;152102;-55
2021/10/17 11:57:01;;;;;;;;;;;;;;;22.10;60.70;101507.44;7285831;19;153404;-55
2021/10/17 11:59:28;;;;;;;;;;;;;;;22.10;60.69;101510.25;7285293;19;152643;-55
2021/10/17 12:01:55;;;;;;;;;;;;;;;22.11;60.84;101513.91;7284882;19;151847;-54
2021/10/17 12:04:27;;;;;;;;;;;;;;;22.11;60.79;101508.28;7281092;19;153419;-55
2021/10/17 12:06:59;;;;;;;;;;;;;;;22.11;60.91;101509.09;7283563;19;153885;-55
2021/10/17 12:09:26;;;;;;;;;;;;;;;22.11;60.59;101497.00;7285138;19;152143;-54
2021/10/17 12:11:56;;;;;;;;;;;;;;;22.11;60.49;101495.03;7286752;19;152739;-55
2021/10/17 12:14:25;;;;;;;;;;;;;;;22.11;60.50;101491.38;7283959;19;152938;-55
2021/10/17 12:16:55;;;;;;;;;;;;;;;22.11;60.48;101503.47;7279710;19;153309;-55
2021/10/17 12:19:26;;;;;;;;;;;;;;;22.10;60.41;101490.53;7284835;19;153864;-55
2021/10/17 12:21:53;;;;;;;;;;;;;;;22.10;60.42;101492.53;7286516;19;151993;-56
2021/10/17 12:24:20;;;;;;;;;;;;;;;22.10;60.61;101492.53;7284319;19;153651;-55
2021/10/17 12:26:49;;;;;;;;;;;;;;;22.08;60.48;101490.00;7283244;19;153920;-56
2021/10/17 12:29:17;;;;;;;;;;;;;;;22.07;60.11;101493.13;7283797;19;151673;-56
2021/10/17 12:31:47;;;;;;;;;;;;;;;22.06;60.51;101481.03;7284644;19;153300;-56
2021/10/17 12:34:15;;;;;;;;;;;;;;;22.05;60.19;101473.75;7284752;19;153848;-56